Time;durP1;ratioP1;P1;durP2;ratioP2;P2;SDS_P1;SDS_P2;PMS_P1;PMS_P2;Temp;Humidity;BMP_temperature;BMP_pressure;BME280_temperature;BME280_humidity;BME280_pressure;Samples;Min_cycle;Max_cycle;Signal;HPM_P1;HPM_P2
2023/07/06 00:02:09;;;;;;;26.20;12.43;;;;;;;11.97;100.00;101462.28;5012898;28;20093;-64
2023/07/06 00:04:37;;;;;;;22.98;11.30;;;;;;;11.95;100.00;101461.34;4995332;28;20372;-64
2023/07/06 00:07:02;;;;;;;23.42;11.38;;;;;;;11.95;100.00;101464.00;5012608;28;20025;-64
2023/07/06 00:09:28;;;;;;;22.70;11.30;;;;;;;11.93;100.00;101455.16;5012805;28;20037;-64
2023/07/06 00:11:55;;;;;;;22.58;10.27;;;;;;;11.95;100.00;101455.19;5012605;28;20034;-64
2023/07/06 00:14:24;;;;;;;22.30;10.70;;;;;;;11.90;100.00;101454.22;5012562;28;20073;-64
2023/07/06 00:17:07;;;;;;;24.60;10.48;;;;;;;11.86;100.00;101463.91;5009352;28;20119;-64
2023/07/06 00:19:33;;;;;;;22.85;9.77;;;;;;;11.83;100.00;101458.59;5011095;28;20029;-64
2023/07/06 00:21:58;;;;;;;23.48;10.25;;;;;;;11.80;100.00;101459.44;5012462;28;20034;-62
2023/07/06 00:24:26;;;;;;;22.05;9.98;;;;;;;11.75;100.00;101450.59;4994865;28;20056;-64
2023/07/06 00:26:51;;;;;;;21.50;9.88;;;;;;;11.69;100.00;101455.78;5012616;28;20026;-64
2023/07/06 00:29:17;;;;;;;22.35;9.45;;;;;;;11.65;100.00;101454.00;5012525;28;20449;-63
2023/07/06 00:31:51;;;;;;;21.85;8.95;;;;;;;11.63;100.00;101450.44;5012640;28;20029;-64
2023/07/06 00:34:17;;;;;;;21.50;9.68;;;;;;;11.60;100.00;101450.41;5008821;28;20037;-64
2023/07/06 00:36:43;;;;;;;23.42;9.52;;;;;;;11.61;100.00;101452.19;5016030;28;20026;-63
2023/07/06 00:39:12;;;;;;;21.83;9.52;;;;;;;11.60;100.00;101453.94;5016266;28;20034;-63
2023/07/06 00:41:38;;;;;;;22.63;9.20;;;;;;;11.60;100.00;101455.72;5016181;28;20034;-62
2023/07/06 00:44:04;;;;;;;21.70;9.50;;;;;;;11.55;100.00;101457.41;5016002;28;20029;-70
2023/07/06 00:46:39;;;;;;;21.10;9.20;;;;;;;11.55;100.00;101455.69;5015789;28;20488;-66
2023/07/06 00:49:10;;;;;;;22.73;9.38;;;;;;;11.53;100.00;101449.47;5016063;28;20026;-66
2023/07/06 00:51:39;;;;;;;21.88;8.98;;;;;;;11.53;100.00;101454.75;5016043;28;20470;-61
2023/07/06 00:54:09;;;;;;;20.70;8.90;;;;;;;11.54;100.00;101453.91;5015714;28;20045;-61
2023/07/06 00:56:41;;;;;;;19.92;8.75;;;;;;;11.54;100.00;101442.44;5015580;28;20026;-68
2023/07/06 00:59:09;;;;;;;22.30;9.10;;;;;;;11.49;100.00;101452.97;5015863;28;20036;-68
2023/07/06 01:01:37;;;;;;;21.75;8.70;;;;;;;11.51;100.00;101454.75;5015542;28;20083;-69
2023/07/06 01:04:06;;;;;;;22.30;8.70;;;;;;;11.48;100.00;101443.25;5015786;28;20029;-70
2023/07/06 01:06:35;;;;;;;21.85;8.30;;;;;;;11.45;100.00;101446.75;5015718;28;20030;-69
2023/07/06 01:09:02;;;;;;;22.00;8.05;;;;;;;11.44;100.00;101439.66;5015594;28;20037;-69
2023/07/06 01:11:28;;;;;;;20.23;7.80;;;;;;;11.45;100.00;101443.22;5015418;28;20037;-62
2023/07/06 01:13:54;;;;;;;21.73;7.75;;;;;;;11.44;100.00;101444.09;5015287;28;20550;-69
2023/07/06 01:16:42;;;;;;;20.48;7.45;;;;;;;11.47;100.00;101446.75;5015570;28;20489;-70
2023/07/06 01:19:20;;;;;;;21.20;7.22;;;;;;;11.48;100.00;101441.47;5014272;28;20058;-69
2023/07/06 01:21:57;;;;;;;20.13;7.13;;;;;;;11.45;100.00;101433.50;5015233;28;20045;-69
2023/07/06 01:24:29;;;;;;;19.92;6.82;;;;;;;11.44;100.00;101428.19;5015082;28;20049;-66
2023/07/06 01:27:27;;;;;;;20.20;7.00;;;;;;;11.43;100.00;101443.22;5015411;28;20025;-70
2023/07/06 01:30:11;;;;;;;19.88;6.75;;;;;;;11.39;100.00;101436.09;5011998;28;20034;-66
2023/07/06 01:32:41;;;;;;;18.90;6.70;;;;;;;11.39;100.00;101430.81;5015320;28;20423;-65
2023/07/06 01:35:17;;;;;;;19.13;6.85;;;;;;;11.37;100.00;101443.13;5014967;28;20021;-66
2023/07/06 01:37:43;;;;;;;20.55;6.93;;;;;;;11.35;100.00;101434.28;5014957;28;20034;-67
2023/07/06 01:40:10;;;;;;;19.83;6.82;;;;;;;11.37;100.00;101432.53;5015063;28;20062;-69
2023/07/06 01:42:40;;;;;;;20.38;6.90;;;;;;;11.34;100.00;101428.13;5014871;28;20084;-66
2023/07/06 01:45:21;;;;;;;20.83;7.25;;;;;;;11.34;100.00;101429.84;5014779;28;20113;-66
2023/07/06 01:47:55;;;;;;;19.55;6.68;;;;;;;11.30;100.00;101426.31;5010884;28;20117;-66
2023/07/06 01:50:31;;;;;;;19.73;6.88;;;;;;;11.30;100.00;101426.31;5014954;28;20028;-66
2023/07/06 01:52:59;;;;;;;20.10;6.90;;;;;;;11.23;100.00;101427.09;5014806;28;20026;-66
2023/07/06 01:55:38;;;;;;;21.00;6.80;;;;;;;11.22;100.00;101432.38;5014589;28;20104;-71
2023/07/06 01:58:25;;;;;;;20.65;6.75;;;;;;;11.16;100.00;101434.06;5014514;28;20033;-66
2023/07/06 02:01:02;;;;;;;19.50;6.72;;;;;;;11.14;100.00;101435.84;5011115;28;20034;-66
2023/07/06 02:03:30;;;;;;;17.95;6.22;;;;;;;11.12;100.00;101441.97;5011997;28;20033;-67
2023/07/06 02:05:55;;;;;;;21.10;6.90;;;;;;;11.04;100.00;101433.94;5014667;28;20034;-70
2023/07/06 02:08:23;;;;;;;19.35;6.68;;;;;;;11.04;100.00;101439.25;5014469;28;20037;-69
2023/07/06 02:10:48;;;;;;;21.00;6.47;;;;;;;10.98;100.00;101433.88;5010577;28;20032;-64
2023/07/06 02:13:15;;;;;;;20.20;6.68;;;;;;;10.94;100.00;101437.34;5014775;28;20113;-65
2023/07/06 02:15:40;;;;;;;19.13;6.55;;;;;;;10.89;100.00;101434.66;5014163;28;20596;-64
2023/07/06 02:18:06;;;;;;;20.23;6.65;;;;;;;10.91;100.00;101437.31;5014129;28;20109;-64
2023/07/06 02:20:31;;;;;;;20.17;6.90;;;;;;;10.90;100.00;101431.13;5014425;28;20037;-64
2023/07/06 02:22:56;;;;;;;19.63;6.82;;;;;;;10.90;100.00;101436.41;5014107;28;20053;-64
2023/07/06 02:25:23;;;;;;;20.58;6.55;;;;;;;10.87;100.00;101436.38;5014020;28;20057;-64
2023/07/06 02:27:49;;;;;;;20.02;6.78;;;;;;;10.84;100.00;101431.06;5014254;28;20048;-63
2023/07/06 02:30:14;;;;;;;19.23;6.97;;;;;;;10.82;100.00;101428.41;4996748;28;20030;-62
2023/07/06 02:32:39;;;;;;;19.55;6.75;;;;;;;10.83;100.00;101429.28;5014126;28;20030;-64
2023/07/06 02:35:08;;;;;;;20.50;7.05;;;;;;;10.86;100.00;101423.13;5013860;28;20088;-64
2023/07/06 02:37:33;;;;;;;20.00;7.05;;;;;;;10.91;100.00;101426.75;5013904;28;20026;-64
2023/07/06 02:39:58;;;;;;;19.92;6.95;;;;;;;10.94;100.00;101432.06;5013950;28;20491;-64
2023/07/06 02:42:25;;;;;;;21.13;6.63;;;;;;;10.98;100.00;101423.31;4996566;28;20441;-64
2023/07/06 02:44:50;;;;;;;18.88;6.63;;;;;;;11.02;100.00;101429.50;5013776;28;20040;-64
2023/07/06 02:47:15;;;;;;;18.83;6.40;;;;;;;11.01;100.00;101425.97;5013871;28;20109;-64
2023/07/06 02:49:41;;;;;;;19.55;6.38;;;;;;;11.05;100.00;101426.88;5013578;28;20114;-64
2023/07/06 02:52:06;;;;;;;21.63;6.50;;;;;;;11.09;100.00;101431.34;5013515;28;20030;-64
2023/07/06 02:54:32;;;;;;;19.35;6.00;;;;;;;11.08;100.00;101419.88;5013740;28;20037;-64
2023/07/06 02:57:00;;;;;;;21.05;6.68;;;;;;;11.08;100.00;101430.47;5013116;28;20076;-64
2023/07/06 02:59:27;;;;;;;20.90;6.50;;;;;;;11.05;100.00;101430.41;5013168;28;20470;-61
2023/07/06 03:01:52;;;;;;;23.00;6.47;;;;;;;11.08;100.00;101426.91;5013635;28;20057;-65
2023/07/06 03:04:17;;;;;;;21.85;6.82;;;;;;;11.11;100.00;101424.31;5009471;28;20485;-65
2023/07/06 03:06:45;;;;;;;20.92;6.22;;;;;;;11.06;100.00;101432.19;5013320;28;20477;-65
2023/07/06 03:09:11;;;;;;;19.88;6.55;;;;;;;11.05;100.00;101434.81;5013538;28;20034;-64
2023/07/06 03:11:37;;;;;;;21.02;6.63;;;;;;;11.04;100.00;101439.25;5013144;28;20041;-63
2023/07/06 03:14:03;;;;;;;19.40;6.30;;;;;;;11.06;100.00;101439.25;5013081;28;20489;-64
2023/07/06 03:16:38;;;;;;;20.08;6.38;;;;;;;11.06;100.00;101436.63;5013408;28;20470;-64
2023/07/06 03:19:04;;;;;;;20.35;6.32;;;;;;;11.06;100.00;101441.91;5013406;28;20041;-62
2023/07/06 03:21:29;;;;;;;19.73;6.32;;;;;;;11.05;100.00;101438.34;5013123;28;20021;-64
2023/07/06 03:23:54;;;;;;;21.02;6.40;;;;;;;11.06;100.00;101437.50;5013593;28;20393;-64
2023/07/06 03:26:20;;;;;;;20.10;6.40;;;;;;;11.06;100.00;101442.78;5012924;28;20515;-64
2023/07/06 03:28:45;;;;;;;19.67;6.35;;;;;;;11.05;100.00;101450.69;5013043;28;20032;-64
2023/07/06 03:31:10;;;;;;;21.05;6.40;;;;;;;11.07;100.00;101444.56;5013141;28;20504;-64
2023/07/06 03:33:37;;;;;;;20.90;6.45;;;;;;;11.07;100.00;101448.97;4995375;28;20053;-64
2023/07/06 03:36:03;;;;;;;19.75;6.30;;;;;;;11.08;100.00;101451.66;5012978;28;20422;-64
2023/07/06 03:38:29;;;;;;;20.38;6.30;;;;;;;11.11;100.00;101456.97;5013116;28;20116;-64
2023/07/06 03:40:55;;;;;;;20.88;6.75;;;;;;;11.09;100.00;101450.75;5012923;28;20030;-63
2023/07/06 03:43:20;;;;;;;22.42;6.72;;;;;;;11.08;100.00;101456.03;4995481;28;20044;-64
2023/07/06 03:45:48;;;;;;;21.38;6.15;;;;;;;11.07;100.00;101455.16;5013029;28;20022;-65
2023/07/06 03:48:15;;;;;;;22.00;6.50;;;;;;;11.08;100.00;101456.03;5012826;28;20042;-64
2023/07/06 03:50:40;;;;;;;21.73;7.00;;;;;;;11.09;100.00;101463.97;5013014;28;20038;-64
2023/07/06 03:53:07;;;;;;;19.85;6.53;;;;;;;11.06;100.00;101466.59;5013230;28;20084;-62
2023/07/06 03:55:33;;;;;;;20.85;6.75;;;;;;;11.05;100.00;101467.44;5012752;28;20038;-63
2023/07/06 03:58:00;;;;;;;20.65;6.25;;;;;;;11.05;100.00;101475.38;5012648;28;20096;-64
2023/07/06 04:00:28;;;;;;;24.13;6.93;;;;;;;11.03;100.00;101481.56;5012918;28;20030;-64
2023/07/06 04:02:56;;;;;;;21.95;7.00;;;;;;;11.01;100.00;101476.25;5012709;28;20030;-64
2023/07/06 04:05:24;;;;;;;19.77;6.20;;;;;;;11.06;100.00;101486.88;5012759;28;20089;-64
2023/07/06 04:07:52;;;;;;;21.77;6.97;;;;;;;11.04;100.00;101481.56;5012850;28;20022;-61
2023/07/06 04:10:22;;;;;;;21.58;6.65;;;;;;;11.07;100.00;101483.38;5015801;28;20481;-63
2023/07/06 04:12:48;;;;;;;21.80;6.82;;;;;;;11.08;100.00;101486.03;5016592;28;20084;-64
2023/07/06 04:15:18;;;;;;;21.08;6.93;;;;;;;11.10;100.00;101486.94;5016660;28;20072;-64
2023/07/06 04:17:44;;;;;;;21.45;7.07;;;;;;;11.16;100.00;101486.13;5016448;28;20033;-64
2023/07/06 04:20:25;;;;;;;22.20;7.13;;;;;;;11.18;100.00;101483.50;5016426;28;20045;-64
2023/07/06 04:22:57;;;;;;;23.48;7.10;;;;;;;11.20;100.00;101482.66;5012799;28;20033;-64
2023/07/06 04:25:33;;;;;;;22.85;7.22;;;;;;;11.23;100.00;101481.81;5016428;28;20053;-65
2023/07/06 04:28:05;;;;;;;21.33;6.90;;;;;;;11.21;100.00;101483.53;5013791;28;20033;-63
2023/07/06 04:30:33;;;;;;;21.65;6.80;;;;;;;11.24;100.00;101486.22;5016252;28;20025;-64
2023/07/06 04:32:59;;;;;;;22.83;7.32;;;;;;;11.22;100.00;101480.03;5016122;28;20033;-63
2023/07/06 04:35:26;;;;;;;22.30;7.07;;;;;;;11.26;100.00;101482.72;5016266;28;20049;-64
2023/07/06 04:37:52;;;;;;;23.42;7.55;;;;;;;11.32;100.00;101488.06;5016090;28;20026;-62
2023/07/06 04:40:19;;;;;;;21.95;7.40;;;;;;;11.37;100.00;101490.75;5016030;28;20022;-65
2023/07/06 04:42:48;;;;;;;22.33;7.60;;;;;;;11.42;100.00;101496.13;5016214;28;20033;-67
2023/07/06 04:45:16;;;;;;;23.65;7.30;;;;;;;11.44;100.00;101494.38;5015907;28;20117;-61
2023/07/06 04:47:42;;;;;;;22.65;7.30;;;;;;;11.46;100.00;101506.78;5016070;28;20022;-69
2023/07/06 04:50:09;;;;;;;22.10;6.80;;;;;;;11.49;100.00;101501.50;5016008;28;20026;-68
2023/07/06 04:52:37;;;;;;;22.40;7.10;;;;;;;11.56;100.00;101502.44;5015841;28;20022;-66
2023/07/06 04:55:06;;;;;;;22.45;7.30;;;;;;;11.65;100.00;101504.34;5015703;28;20034;-62
2023/07/06 04:57:31;;;;;;;20.75;7.40;;;;;;;11.65;100.00;101491.97;5015786;28;20029;-65
2023/07/06 04:59:57;;;;;;;22.63;7.68;;;;;;;11.77;100.00;101500.91;5015603;28;20025;-69
2023/07/06 05:02:22;;;;;;;22.83;7.70;;;;;;;11.83;100.00;101499.19;5015668;28;20044;-64
2023/07/06 05:04:49;;;;;;;22.17;7.50;;;;;;;11.88;100.00;101499.22;5015961;28;20140;-66
2023/07/06 05:07:14;;;;;;;23.25;8.07;;;;;;;11.89;100.00;101500.16;5015815;28;20445;-67
2023/07/06 05:09:42;;;;;;;24.42;8.40;;;;;;;11.93;100.00;101494.91;5015402;28;20054;-63
2023/07/06 05:12:09;;;;;;;24.50;8.40;;;;;;;11.95;100.00;101505.53;5015686;28;20073;-65
2023/07/06 05:14:35;;;;;;;24.10;8.48;;;;;;;11.94;100.00;101511.69;5015291;28;20034;-64
2023/07/06 05:17:00;;;;;;;23.45;8.93;;;;;;;12.00;100.00;101509.13;5015323;28;20116;-66
2023/07/06 05:19:27;;;;;;;23.55;8.77;;;;;;;12.07;100.00;101510.03;5015418;28;20030;-66
2023/07/06 05:21:55;;;;;;;24.73;9.27;;;;;;;12.16;100.00;101511.00;5014535;28;20481;-62
2023/07/06 05:24:21;;;;;;;24.60;9.23;;;;;;;12.21;100.00;101511.91;5015254;28;20439;-70
2023/07/06 05:26:46;;;;;;;24.95;9.68;;;;;;;12.29;100.00;101511.09;5015697;28;20370;-66
2023/07/06 05:29:12;;;;;;;24.27;9.63;;;;;;;12.34;100.00;101510.25;5011854;28;20029;-73
2023/07/06 05:31:37;;;;;;;29.42;9.75;;;;;;;12.37;100.00;101514.72;5005081;28;20097;-67
2023/07/06 05:34:02;;;;;;;25.27;9.55;;;;;;;12.40;100.00;101511.19;5015245;28;20121;-72
2023/07/06 05:36:27;;;;;;;26.00;10.30;;;;;;;12.39;100.00;101515.59;5014862;28;20057;-72
2023/07/06 05:38:53;;;;;;;25.52;10.15;;;;;;;12.46;100.00;101514.75;5014478;28;20061;-70
2023/07/06 05:41:18;;;;;;;26.92;9.88;;;;;;;12.56;100.00;101527.22;5015001;28;20030;-73
2023/07/06 05:43:43;;;;;;;26.38;10.23;;;;;;;12.60;100.00;101511.34;5014221;28;20037;-74
2023/07/06 05:46:09;;;;;;;26.42;10.90;;;;;;;12.62;100.00;101515.75;5014415;28;20476;-72
2023/07/06 05:48:34;;;;;;;25.65;10.60;;;;;;;12.68;100.00;101517.56;5014769;28;20037;-68
2023/07/06 05:51:00;;;;;;;24.95;11.05;;;;;;;12.71;100.00;101523.78;5014805;28;20050;-68
2023/07/06 05:53:27;;;;;;;26.23;10.30;;;;;;;12.78;100.00;101524.69;5014782;28;20030;-74
2023/07/06 05:55:52;;;;;;;23.40;10.00;;;;;;;12.83;100.00;101525.63;5013976;28;20049;-71
2023/07/06 05:58:18;;;;;;;27.40;10.70;;;;;;;12.89;100.00;101533.63;5014160;28;20392;-69
2023/07/06 06:00:43;;;;;;;25.52;10.50;;;;;;;12.95;100.00;101531.91;5014652;28;20022;-65
2023/07/06 06:03:09;;;;;;;26.13;10.05;;;;;;;12.91;100.00;101529.19;5014248;28;20373;-65
2023/07/06 06:05:35;;;;;;;27.92;10.25;;;;;;;12.88;100.00;101523.00;5014028;28;20037;-66
2023/07/06 06:08:01;;;;;;;26.30;10.40;;;;;;;12.84;100.00;101529.16;5014152;28;20508;-62
2023/07/06 06:10:28;;;;;;;25.52;10.63;;;;;;;12.85;100.00;101534.47;5014446;28;20400;-60
2023/07/06 06:12:54;;;;;;;26.38;10.93;;;;;;;12.84;100.00;101543.34;5014299;28;20370;-61
2023/07/06 06:15:19;;;;;;;26.40;10.57;;;;;;;12.89;100.00;101540.69;5014311;28;20041;-61
2023/07/06 06:17:44;;;;;;;26.13;10.68;;;;;;;12.91;100.00;101544.25;5014115;28;20034;-61
2023/07/06 06:20:10;;;;;;;25.52;10.77;;;;;;;13.04;100.00;101535.47;5013643;28;20026;-60
2023/07/06 06:22:36;;;;;;;23.75;10.20;;;;;;;13.15;100.00;101537.28;5014253;28;20083;-62
2023/07/06 06:25:02;;;;;;;27.02;11.32;;;;;;;13.15;100.00;101532.88;5013569;28;20108;-60
2023/07/06 06:27:29;;;;;;;29.25;11.93;;;;;;;13.27;100.00;101541.78;5014070;28;20050;-61
2023/07/06 06:29:55;;;;;;;25.73;11.45;;;;;;;13.35;100.00;101551.59;5014177;28;20042;-62
2023/07/06 06:32:22;;;;;;;26.92;11.93;;;;;;;13.49;100.00;101545.44;5012356;28;20473;-61
2023/07/06 06:34:47;;;;;;;27.70;13.32;;;;;;;13.62;100.00;101543.72;5013849;28;20048;-61
2023/07/06 06:37:12;;;;;;;28.70;12.73;;;;;;;13.83;100.00;101553.50;5013902;28;20458;-63
2023/07/06 06:39:39;;;;;;;26.98;13.00;;;;;;;13.91;100.00;101555.28;5013996;28;20042;-61
2023/07/06 06:42:07;;;;;;;25.38;12.05;;;;;;;14.10;100.00;101557.97;5013612;28;20030;-63
2023/07/06 06:44:32;;;;;;;26.88;12.80;;;;;;;14.16;100.00;101546.47;5013721;28;20030;-62
2023/07/06 06:47:00;;;;;;;27.42;13.38;;;;;;;14.13;100.00;101557.97;5011817;28;20100;-64
2023/07/06 06:49:26;;;;;;;27.33;12.43;;;;;;;14.02;100.00;101560.59;5013704;28;20470;-61
2023/07/06 06:51:51;;;;;;;27.75;12.43;;;;;;;14.11;100.00;101562.38;5013600;28;20029;-62
2023/07/06 06:54:17;;;;;;;27.33;12.30;;;;;;;14.21;100.00;101558.88;5013375;28;20445;-63
2023/07/06 06:56:42;;;;;;;28.00;12.70;;;;;;;14.27;100.00;101561.53;5008816;28;20034;-64
2023/07/06 06:59:11;;;;;;;29.45;12.75;;;;;;;14.35;100.00;101563.31;5004908;28;20113;-63
2023/07/06 07:01:37;;;;;;;27.27;11.63;;;;;;;14.36;100.00;101565.97;5004418;28;20034;-64
2023/07/06 07:04:02;;;;;;;27.38;12.55;;;;;;;14.47;100.00;101573.94;5003271;28;20030;-64
2023/07/06 07:06:29;;;;;;;27.13;12.45;;;;;;;14.57;100.00;101572.16;5003286;28;20437;-61
2023/07/06 07:08:54;;;;;;;28.05;12.70;;;;;;;14.75;100.00;101576.59;5006527;28;20060;-64
2023/07/06 07:11:20;;;;;;;28.80;13.20;;;;;;;14.74;100.00;101566.88;5013562;28;20029;-64
2023/07/06 07:13:50;;;;;;;29.48;14.10;;;;;;;14.73;100.00;101576.59;5012955;28;20026;-64
2023/07/06 07:16:16;;;;;;;26.90;12.88;;;;;;;15.01;100.00;101576.56;5015370;28;20029;-65
2023/07/06 07:18:45;;;;;;;26.60;12.82;;;;;;;15.12;100.00;101574.75;5014524;28;20021;-62
2023/07/06 07:21:12;;;;;;;27.50;12.85;;;;;;;15.22;100.00;101580.03;5010771;28;20037;-68
2023/07/06 07:23:45;;;;;;;28.90;13.30;;;;;;;15.33;100.00;101586.22;5013163;28;20164;-69
2023/07/06 07:26:21;;;;;;;28.60;13.55;;;;;;;15.47;100.00;101589.72;5015370;28;20088;-68
2023/07/06 07:28:48;;;;;;;28.80;13.40;;;;;;;15.34;100.00;101590.66;5004850;28;20042;-62
2023/07/06 07:31:15;;;;;;;26.63;12.82;;;;;;;15.27;100.00;101603.09;5001967;28;20042;-65
2023/07/06 07:33:41;;;;;;;28.95;13.13;;;;;;;15.40;100.00;101603.09;5009008;28;20030;-68
2023/07/06 07:36:09;;;;;;;27.73;13.20;;;;;;;15.46;100.00;101593.28;5004355;28;20026;-62
2023/07/06 07:38:36;;;;;;;27.20;13.10;;;;;;;15.79;100.00;101601.16;5002775;28;20447;-69
2023/07/06 07:41:03;;;;;;;26.52;13.30;;;;;;;15.81;100.00;101596.69;5011421;28;20049;-66
2023/07/06 07:43:34;;;;;;;25.85;13.05;;;;;;;15.75;100.00;101596.72;5012267;28;20034;-68
2023/07/06 07:46:04;;;;;;;26.65;13.50;;;;;;;15.77;100.00;101597.56;5012963;28;20050;-67
2023/07/06 07:48:33;;;;;;;25.95;13.52;;;;;;;15.88;100.00;101602.91;5012675;28;20101;-70
2023/07/06 07:51:01;;;;;;;25.73;13.77;;;;;;;15.75;100.00;101594.91;5012696;28;20033;-68
2023/07/06 07:53:27;;;;;;;27.70;14.27;;;;;;;15.75;100.00;101594.91;5016193;28;20030;-67
2023/07/06 07:55:54;;;;;;;26.85;14.35;;;;;;;15.90;100.00;101596.69;5012506;28;20033;-69
2023/07/06 07:58:22;;;;;;;25.95;14.60;;;;;;;15.95;100.00;101601.97;5012469;28;20026;-66
2023/07/06 08:00:49;;;;;;;27.05;14.20;;;;;;;16.14;100.00;101600.06;5012776;28;20030;-68
2023/07/06 08:03:15;;;;;;;28.35;14.85;;;;;;;16.45;100.00;101602.50;5012501;28;20026;-69
2023/07/06 08:05:42;;;;;;;26.48;14.90;;;;;;;16.70;100.00;101598.75;5014471;28;20124;-68
2023/07/06 08:08:09;;;;;;;28.85;14.52;;;;;;;16.68;100.00;101597.84;5012930;28;20388;-67
2023/07/06 08:10:36;;;;;;;27.02;14.02;;;;;;;16.93;100.00;101604.78;5012713;28;20033;-67
2023/07/06 08:13:03;;;;;;;25.90;14.05;;;;;;;17.40;100.00;101604.25;5012615;28;20045;-67
2023/07/06 08:15:29;;;;;;;26.27;13.80;;;;;;;17.14;100.00;101598.31;5009197;28;20059;-66
2023/07/06 08:17:57;;;;;;;26.42;13.80;;;;;;;17.33;100.00;101601.66;5003785;28;20481;-68
2023/07/06 08:20:22;;;;;;;26.80;13.57;;;;;;;17.18;100.00;101605.41;5001849;28;20030;-76
2023/07/06 08:22:48;;;;;;;24.80;12.95;;;;;;;17.00;100.00;101607.38;5002947;28;20041;-74
2023/07/06 08:25:13;;;;;;;26.65;13.68;;;;;;;17.01;100.00;101605.59;5007652;28;20073;-72
2023/07/06 08:27:39;;;;;;;24.55;12.35;;;;;;;17.00;100.00;101609.16;5012553;28;20033;-77
2023/07/06 08:30:06;;;;;;;25.05;13.70;;;;;;;16.86;100.00;101604.81;5011711;28;20022;-70
2023/07/06 08:32:33;;;;;;;24.52;12.85;;;;;;;17.30;100.00;101615.06;5000860;28;20093;-71
2023/07/06 08:35:00;;;;;;;23.38;11.27;;;;;;;17.33;100.00;101607.00;5012266;28;20034;-71
2023/07/06 08:37:26;;;;;;;24.30;12.15;;;;;;;17.11;100.00;101611.72;5011927;28;20104;-71
2023/07/06 08:39:51;;;;;;;23.65;12.18;;;;;;;17.27;100.00;101616.00;5012212;28;20122;-71
2023/07/06 08:42:18;;;;;;;25.33;12.20;;;;;;;17.45;100.00;101616.69;4994458;28;20069;-62
2023/07/06 08:44:52;;;;;;;25.13;11.65;;;;;;;17.76;100.00;101618.03;5012341;28;20516;-64
2023/07/06 08:47:18;;;;;;;24.10;12.27;;;;;;;17.95;100.00;101612.47;5012524;28;20385;-64
2023/07/06 08:49:43;;;;;;;25.00;12.13;;;;;;;18.18;100.00;101614.81;5015365;28;20056;-64
2023/07/06 08:52:14;;;;;;;23.48;11.73;;;;;;;18.20;100.00;101630.84;5012178;28;20053;-63
2023/07/06 08:54:41;;;;;;;23.92;10.65;;;;;;;18.41;100.00;101614.47;5012105;28;20034;-63
2023/07/06 08:57:18;;;;;;;22.95;10.35;;;;;;;18.62;100.00;101625.72;5014564;28;20113;-63
2023/07/06 08:59:48;;;;;;;23.48;10.40;;;;;;;18.23;100.00;101621.00;5015349;28;20105;-64
2023/07/06 09:02:19;;;;;;;24.65;10.20;;;;;;;18.48;100.00;101631.31;5015734;28;20041;-64
2023/07/06 09:04:46;;;;;;;23.20;10.70;;;;;;;18.72;100.00;101626.47;5015637;28;20030;-64
2023/07/06 09:07:17;;;;;;;24.55;10.23;;;;;;;19.11;100.00;101635.59;5015353;28;20076;-64
2023/07/06 09:09:47;;;;;;;24.13;9.57;;;;;;;19.59;100.00;101631.97;5015398;28;20033;-63
2023/07/06 09:12:24;;;;;;;21.25;8.35;;;;;;;19.17;100.00;101635.47;5015502;28;20026;-63
2023/07/06 09:14:52;;;;;;;21.80;8.40;;;;;;;19.32;100.00;101631.66;5015450;28;20042;-63
2023/07/06 09:17:19;;;;;;;21.10;8.30;;;;;;;19.30;100.00;101635.25;5015084;28;20117;-64
2023/07/06 09:19:45;;;;;;;20.88;7.95;;;;;;;19.24;100.00;101641.63;5015040;28;20037;-64
2023/07/06 09:22:10;;;;;;;21.70;7.80;;;;;;;19.31;100.00;101627.19;5015316;28;20030;-64
2023/07/06 09:24:36;;;;;;;21.52;7.85;;;;;;;19.07;100.00;101638.38;5014944;28;20112;-65
2023/07/06 09:27:09;;;;;;;21.83;7.80;;;;;;;19.03;100.00;101640.22;5015586;28;20022;-64
2023/07/06 09:29:37;;;;;;;;;;;;;;;19.13;100.00;101639.16;5015594;28;20083;-69
2023/07/06 09:32:11;;;;;;;20.85;6.00;;;;;;;19.29;100.00;101639.72;5014975;28;19939;-71
2023/07/06 09:34:38;;;;;;;19.23;6.32;;;;;;;19.69;100.00;101635.38;5015210;28;20038;-69
2023/07/06 09:37:04;;;;;;;18.30;6.10;;;;;;;20.08;100.00;101629.16;5014935;28;20069;-69
2023/07/06 09:39:30;;;;;;;20.30;6.20;;;;;;;20.60;100.00;101632.41;5014836;28;20030;-64
2023/07/06 09:41:57;;;;;;;19.15;5.80;;;;;;;20.84;100.00;101623.75;5014828;28;20032;-70
2023/07/06 09:44:32;;;;;;;19.27;5.32;;;;;;;20.74;100.00;101641.03;5015214;28;20436;-69
2023/07/06 09:46:59;;;;;;;20.25;5.45;;;;;;;20.55;100.00;101630.72;5011450;28;20022;-71
2023/07/06 09:49:33;;;;;;;19.33;5.40;;;;;;;20.57;100.00;101641.44;5010826;28;20033;-66
2023/07/06 09:52:02;;;;;;;18.67;5.10;;;;;;;20.47;100.00;101642.56;5014571;28;20037;-64
2023/07/06 09:54:56;;;;;;;17.83;4.70;;;;;;;20.57;100.00;101632.50;5014560;28;20034;-68
2023/07/06 09:57:25;;;;;;;18.63;4.65;;;;;;;20.32;100.00;101644.72;5014091;28;20028;-70
2023/07/06 09:59:52;;;;;;;18.58;4.97;;;;;;;19.93;100.00;101639.34;4997028;28;20037;-70
2023/07/06 10:02:41;;;;;;;19.45;4.95;;;;;;;19.93;100.00;101636.66;5014743;28;20489;-64
2023/07/06 10:05:21;;;;;;;17.67;4.80;;;;;;;19.89;100.00;101631.38;5011972;28;20041;-69
2023/07/06 10:07:57;;;;;;;18.80;4.65;;;;;;;20.02;100.00;101631.09;5014166;28;20045;-69
2023/07/06 10:10:44;;;;;;;17.20;4.30;;;;;;;20.03;100.00;101632.84;5014296;28;20533;-69
2023/07/06 10:13:27;;;;;;;15.43;3.90;;;;;;;21.65;89.60;101638.56;5012092;28;20030;-70
2023/07/06 10:16:04;;;;;;;15.35;3.88;;;;;;;21.97;82.36;101634.03;5013957;28;20029;-68
2023/07/06 10:18:39;;;;;;;16.00;4.07;;;;;;;22.76;79.08;101634.19;5010620;28;20543;-67
2023/07/06 10:21:14;;;;;;;14.98;3.75;;;;;;;22.70;75.64;101621.84;5013950;28;20018;-70
2023/07/06 10:23:56;;;;;;;15.57;4.00;;;;;;;22.65;77.15;101618.41;5014348;28;20124;-70
2023/07/06 10:26:33;;;;;;;16.15;4.05;;;;;;;22.69;73.63;101628.16;5008348;28;20046;-70
2023/07/06 10:29:05;;;;;;;14.95;3.60;;;;;;;22.41;70.27;101636.25;5010189;28;20109;-68
2023/07/06 10:31:42;;;;;;;15.52;3.80;;;;;;;21.14;71.75;101620.28;5010265;28;20101;-70
2023/07/06 10:34:25;;;;;;;15.40;3.85;;;;;;;20.52;84.82;101622.75;5013409;28;20042;-70
2023/07/06 10:36:51;;;;;;;15.27;3.65;;;;;;;22.00;83.70;101623.16;5013523;28;20068;-69
2023/07/06 10:39:25;;;;;;;14.90;3.58;;;;;;;23.84;66.97;101627.63;5013702;28;20026;-70
2023/07/06 10:42:19;;;;;;;14.93;3.25;;;;;;;23.73;63.68;101624.47;5013504;28;20492;-65
2023/07/06 10:44:49;;;;;;;15.32;3.65;;;;;;;22.95;63.25;101624.56;5012402;28;20040;-61
2023/07/06 10:47:33;;;;;;;13.07;3.30;;;;;;;22.27;66.20;101628.63;5013623;28;20489;-62
2023/07/06 10:50:07;;;;;;;14.43;3.40;;;;;;;22.70;63.97;101620.94;5010034;28;20036;-65
2023/07/06 10:52:36;;;;;;;13.88;3.47;;;;;;;23.85;58.28;101624.88;5010451;28;20152;-66
2023/07/06 10:55:09;;;;;;;13.27;3.20;;;;;;;23.28;58.03;101629.69;5013441;28;20120;-61
2023/07/06 10:57:36;;;;;;;13.65;3.33;;;;;;;24.01;56.84;101625.19;5013540;28;20029;-64
2023/07/06 11:00:14;;;;;;;13.80;3.45;;;;;;;24.48;55.42;101629.56;5013289;28;20469;-68
2023/07/06 11:02:40;;;;;;;12.00;3.08;;;;;;;24.85;56.86;101630.72;5013210;28;20022;-66
2023/07/06 11:05:26;;;;;;;13.70;3.25;;;;;;;23.80;56.79;101639.47;5013524;28;20026;-63
2023/07/06 11:07:54;;;;;;;13.88;3.30;;;;;;;22.20;57.12;101630.63;5013516;28;20030;-63
2023/07/06 11:10:48;;;;;;;12.77;3.40;;;;;;;21.54;64.64;101636.22;5013562;28;20472;-69
2023/07/06 11:13:21;;;;;;;15.60;3.40;;;;;;;20.95;67.01;101644.09;5011831;28;20101;-63
2023/07/06 11:15:51;;;;;;;16.25;3.60;;;;;;;20.77;70.34;101638.28;4995608;28;20030;-65